sensor_id;sensor_type;location;lat;lon;timestamp;P1;durP1;ratioP1;P2;durP2;ratioP2
36573;SDS011;22578;42.668;23.232;2022-11-14T00:03:16;1.52;;;1.48;;
36573;SDS011;22578;42.668;23.232;2022-11-14T00:06:37;1.38;;;1.35;;
36573;SDS011;22578;42.668;23.232;2022-11-14T00:09:57;2.75;;;2.55;;
36573;SDS011;22578;42.668;23.232;2022-11-14T00:13:18;3.40;;;3.20;;
36573;SDS011;22578;42.668;23.232;2022-11-14T00:16:39;2.17;;;2.08;;
36573;SDS011;22578;42.668;23.232;2022-11-14T00:19:59;2.90;;;2.70;;
36573;SDS011;22578;42.668;23.232;2022-11-14T00:23:20;3.17;;;2.97;;
36573;SDS011;22578;42.668;23.232;2022-11-14T00:26:41;2.47;;;2.33;;
36573;SDS011;22578;42.668;23.232;2022-11-14T00:30:01;2.40;;;2.25;;
36573;SDS011;22578;42.668;23.232;2022-11-14T00:33:22;2.70;;;2.55;;
36573;SDS011;22578;42.668;23.232;2022-11-14T00:36:42;4.00;;;3.67;;
36573;SDS011;22578;42.668;23.232;2022-11-14T00:40:03;4.60;;;4.30;;
36573;SDS011;22578;42.668;23.232;2022-11-14T00:43:24;4.30;;;4.00;;
36573;SDS011;22578;42.668;23.232;2022-11-14T00:46:44;2.67;;;2.47;;
36573;SDS011;22578;42.668;23.232;2022-11-14T00:50:05;3.05;;;2.85;;
36573;SDS011;22578;42.668;23.232;2022-11-14T00:53:25;2.95;;;2.75;;
36573;SDS011;22578;42.668;23.232;2022-11-14T00:56:46;5.38;;;2.78;;
36573;SDS011;22578;42.668;23.232;2022-11-14T01:00:06;2.83;;;2.63;;
36573;SDS011;22578;42.668;23.232;2022-11-14T01:03:28;2.40;;;2.25;;
36573;SDS011;22578;42.668;23.232;2022-11-14T01:06:48;1.92;;;1.83;;
36573;SDS011;22578;42.668;23.232;2022-11-14T01:10:08;2.25;;;2.13;;
36573;SDS011;22578;42.668;23.232;2022-11-14T01:13:30;3.75;;;3.45;;
36573;SDS011;22578;42.668;23.232;2022-11-14T01:16:51;3.63;;;3.33;;
36573;SDS011;22578;42.668;23.232;2022-11-14T01:20:11;2.95;;;2.75;;
36573;SDS011;22578;42.668;23.232;2022-11-14T01:23:32;2.80;;;2.65;;
36573;SDS011;22578;42.668;23.232;2022-11-14T01:26:55;2.55;;;2.42;;
36573;SDS011;22578;42.668;23.232;2022-11-14T01:30:16;3.65;;;3.42;;
36573;SDS011;22578;42.668;23.232;2022-11-14T01:33:36;2.50;;;2.33;;
36573;SDS011;22578;42.668;23.232;2022-11-14T01:36:56;1.83;;;1.73;;
36573;SDS011;22578;42.668;23.232;2022-11-14T01:40:17;2.75;;;2.55;;
36573;SDS011;22578;42.668;23.232;2022-11-14T01:43:38;2.83;;;2.63;;
36573;SDS011;22578;42.668;23.232;2022-11-14T01:46:58;3.88;;;3.55;;
36573;SDS011;22578;42.668;23.232;2022-11-14T01:50:19;1.83;;;1.73;;
36573;SDS011;22578;42.668;23.232;2022-11-14T01:53:39;1.75;;;1.65;;
36573;SDS011;22578;42.668;23.232;2022-11-14T01:57:01;2.30;;;2.20;;
36573;SDS011;22578;42.668;23.232;2022-11-14T02:00:22;2.05;;;1.95;;
36573;SDS011;22578;42.668;23.232;2022-11-14T02:03:43;1.70;;;1.60;;
36573;SDS011;22578;42.668;23.232;2022-11-14T02:07:05;2.60;;;2.42;;
36573;SDS011;22578;42.668;23.232;2022-11-14T02:10:27;1.77;;;1.67;;
36573;SDS011;22578;42.668;23.232;2022-11-14T02:13:47;2.38;;;2.28;;
36573;SDS011;22578;42.668;23.232;2022-11-14T02:17:07;1.92;;;1.83;;
36573;SDS011;22578;42.668;23.232;2022-11-14T02:20:29;1.45;;;1.42;;
36573;SDS011;22578;42.668;23.232;2022-11-14T02:23:53;1.70;;;1.60;;
36573;SDS011;22578;42.668;23.232;2022-11-14T02:27:14;2.83;;;2.67;;
36573;SDS011;22578;42.668;23.232;2022-11-14T02:30:35;4.13;;;3.65;;
36573;SDS011;22578;42.668;23.232;2022-11-14T02:33:55;1.35;;;1.35;;
36573;SDS011;22578;42.668;23.232;2022-11-14T02:37:16;1.95;;;1.85;;
36573;SDS011;22578;42.668;23.232;2022-11-14T02:40:36;1.98;;;1.88;;
36573;SDS011;22578;42.668;23.232;2022-11-14T02:43:57;1.67;;;1.58;;
36573;SDS011;22578;42.668;23.232;2022-11-14T02:47:17;2.15;;;2.05;;
36573;SDS011;22578;42.668;23.232;2022-11-14T02:50:37;1.98;;;1.88;;
36573;SDS011;22578;42.668;23.232;2022-11-14T02:53:58;1.83;;;1.73;;
36573;SDS011;22578;42.668;23.232;2022-11-14T02:57:18;1.77;;;1.67;;
36573;SDS011;22578;42.668;23.232;2022-11-14T03:00:39;1.65;;;1.58;;
36573;SDS011;22578;42.668;23.232;2022-11-14T03:03:59;2.20;;;2.08;;
36573;SDS011;22578;42.668;23.232;2022-11-14T03:07:19;1.35;;;1.35;;
36573;SDS011;22578;42.668;23.232;2022-11-14T03:10:40;1.80;;;1.70;;
36573;SDS011;22578;42.668;23.232;2022-11-14T03:14:00;1.65;;;1.55;;
36573;SDS011;22578;42.668;23.232;2022-11-14T03:17:20;1.45;;;1.45;;
36573;SDS011;22578;42.668;23.232;2022-11-14T03:20:43;3.05;;;1.70;;
36573;SDS011;22578;42.668;23.232;2022-11-14T03:24:04;1.70;;;1.60;;
36573;SDS011;22578;42.668;23.232;2022-11-14T03:27:24;2.05;;;1.95;;
36573;SDS011;22578;42.668;23.232;2022-11-14T03:30:45;1.48;;;1.48;;
36573;SDS011;22578;42.668;23.232;2022-11-14T03:34:05;1.67;;;1.58;;
36573;SDS011;22578;42.668;23.232;2022-11-14T03:37:25;2.03;;;1.92;;
36573;SDS011;22578;42.668;23.232;2022-11-14T03:40:46;2.63;;;2.42;;
36573;SDS011;22578;42.668;23.232;2022-11-14T03:44:06;2.70;;;2.40;;
36573;SDS011;22578;42.668;23.232;2022-11-14T03:47:27;2.05;;;1.95;;
36573;SDS011;22578;42.668;23.232;2022-11-14T03:50:47;1.70;;;1.60;;
36573;SDS011;22578;42.668;23.232;2022-11-14T03:54:07;1.67;;;1.58;;
36573;SDS011;22578;42.668;23.232;2022-11-14T03:57:28;1.50;;;1.50;;
36573;SDS011;22578;42.668;23.232;2022-11-14T04:00:48;1.42;;;1.38;;
36573;SDS011;22578;42.668;23.232;2022-11-14T04:04:10;1.50;;;1.40;;
36573;SDS011;22578;42.668;23.232;2022-11-14T04:07:31;2.55;;;2.40;;
36573;SDS011;22578;42.668;23.232;2022-11-14T04:10:51;1.50;;;1.50;;
36573;SDS011;22578;42.668;23.232;2022-11-14T04:14:11;2.78;;;2.58;;
36573;SDS011;22578;42.668;23.232;2022-11-14T04:17:32;1.63;;;1.58;;
36573;SDS011;22578;42.668;23.232;2022-11-14T04:20:52;2.20;;;2.00;;
36573;SDS011;22578;42.668;23.232;2022-11-14T04:24:13;3.03;;;2.83;;
36573;SDS011;22578;42.668;23.232;2022-11-14T04:27:33;2.50;;;2.30;;
36573;SDS011;22578;42.668;23.232;2022-11-14T04:30:54;1.70;;;1.60;;
36573;SDS011;22578;42.668;23.232;2022-11-14T04:34:14;1.30;;;1.30;;
36573;SDS011;22578;42.668;23.232;2022-11-14T04:37:34;1.98;;;1.88;;
36573;SDS011;22578;42.668;23.232;2022-11-14T04:40:57;1.33;;;1.33;;
36573;SDS011;22578;42.668;23.232;2022-11-14T04:44:17;2.75;;;2.55;;
36573;SDS011;22578;42.668;23.232;2022-11-14T04:47:39;1.50;;;1.45;;
36573;SDS011;22578;42.668;23.232;2022-11-14T04:51:01;1.98;;;1.88;;
36573;SDS011;22578;42.668;23.232;2022-11-14T04:54:21;1.70;;;1.60;;
36573;SDS011;22578;42.668;23.232;2022-11-14T04:57:41;1.83;;;1.73;;
36573;SDS011;22578;42.668;23.232;2022-11-14T05:01:08;2.05;;;1.95;;
36573;SDS011;22578;42.668;23.232;2022-11-14T05:04:29;1.58;;;1.52;;
36573;SDS011;22578;42.668;23.232;2022-11-14T05:07:50;1.63;;;1.52;;
36573;SDS011;22578;42.668;23.232;2022-11-14T05:11:14;1.92;;;1.83;;
36573;SDS011;22578;42.668;23.232;2022-11-14T05:14:34;2.00;;;1.90;;
36573;SDS011;22578;42.668;23.232;2022-11-14T05:17:56;1.40;;;1.40;;
36573;SDS011;22578;42.668;23.232;2022-11-14T05:21:17;2.13;;;2.03;;
36573;SDS011;22578;42.668;23.232;2022-11-14T05:24:37;2.65;;;2.50;;
36573;SDS011;22578;42.668;23.232;2022-11-14T05:27:57;1.88;;;1.77;;
36573;SDS011;22578;42.668;23.232;2022-11-14T05:31:18;3.17;;;2.63;;
36573;SDS011;22578;42.668;23.232;2022-11-14T05:34:38;2.60;;;2.42;;
36573;SDS011;22578;42.668;23.232;2022-11-14T05:38:01;3.85;;;3.65;;
36573;SDS011;22578;42.668;23.232;2022-11-14T05:41:22;2.70;;;2.55;;
36573;SDS011;22578;42.668;23.232;2022-11-14T05:44:42;3.60;;;3.35;;
36573;SDS011;22578;42.668;23.232;2022-11-14T05:48:03;4.97;;;4.60;;
36573;SDS011;22578;42.668;23.232;2022-11-14T05:51:23;2.28;;;2.17;;
36573;SDS011;22578;42.668;23.232;2022-11-14T05:54:44;3.42;;;3.22;;
36573;SDS011;22578;42.668;23.232;2022-11-14T05:58:04;3.80;;;3.55;;
36573;SDS011;22578;42.668;23.232;2022-11-14T06:01:24;3.47;;;3.13;;
36573;SDS011;22578;42.668;23.232;2022-11-14T06:04:45;2.63;;;2.50;;
36573;SDS011;22578;42.668;23.232;2022-11-14T06:08:05;2.70;;;2.58;;
36573;SDS011;22578;42.668;23.232;2022-11-14T06:11:26;1.90;;;1.80;;
36573;SDS011;22578;42.668;23.232;2022-11-14T06:14:46;2.10;;;2.00;;
36573;SDS011;22578;42.668;23.232;2022-11-14T06:18:07;3.47;;;3.28;;
36573;SDS011;22578;42.668;23.232;2022-11-14T06:21:27;3.13;;;2.90;;
36573;SDS011;22578;42.668;23.232;2022-11-14T06:24:47;2.88;;;2.60;;
36573;SDS011;22578;42.668;23.232;2022-11-14T06:28:08;2.50;;;2.38;;
36573;SDS011;22578;42.668;23.232;2022-11-14T06:31:28;3.05;;;2.85;;
36573;SDS011;22578;42.668;23.232;2022-11-14T06:34:48;2.67;;;2.53;;
36573;SDS011;22578;42.668;23.232;2022-11-14T06:38:09;3.83;;;3.53;;
36573;SDS011;22578;42.668;23.232;2022-11-14T06:41:29;3.13;;;2.92;;
36573;SDS011;22578;42.668;23.232;2022-11-14T06:44:49;5.68;;;5.25;;
36573;SDS011;22578;42.668;23.232;2022-11-14T06:48:10;4.15;;;3.85;;
36573;SDS011;22578;42.668;23.232;2022-11-14T06:51:30;3.30;;;3.08;;
36573;SDS011;22578;42.668;23.232;2022-11-14T06:54:51;3.53;;;3.22;;
36573;SDS011;22578;42.668;23.232;2022-11-14T06:58:11;3.67;;;3.38;;
36573;SDS011;22578;42.668;23.232;2022-11-14T07:01:31;3.85;;;3.55;;
36573;SDS011;22578;42.668;23.232;2022-11-14T07:04:52;2.55;;;2.45;;
36573;SDS011;22578;42.668;23.232;2022-11-14T07:08:12;3.42;;;3.22;;
36573;SDS011;22578;42.668;23.232;2022-11-14T07:11:33;4.38;;;3.97;;
36573;SDS011;22578;42.668;23.232;2022-11-14T07:14:54;5.00;;;4.65;;
36573;SDS011;22578;42.668;23.232;2022-11-14T07:18:14;4.15;;;3.85;;
36573;SDS011;22578;42.668;23.232;2022-11-14T07:21:35;3.95;;;3.63;;
36573;SDS011;22578;42.668;23.232;2022-11-14T07:24:55;4.13;;;3.83;;
36573;SDS011;22578;42.668;23.232;2022-11-14T07:28:16;4.50;;;4.20;;
36573;SDS011;22578;42.668;23.232;2022-11-14T07:31:36;3.25;;;3.05;;
36573;SDS011;22578;42.668;23.232;2022-11-14T07:34:57;2.50;;;2.40;;
36573;SDS011;22578;42.668;23.232;2022-11-14T07:38:17;4.50;;;4.15;;
36573;SDS011;22578;42.668;23.232;2022-11-14T07:41:37;3.30;;;3.10;;
36573;SDS011;22578;42.668;23.232;2022-11-14T07:44:59;4.00;;;3.60;;
36573;SDS011;22578;42.668;23.232;2022-11-14T07:48:20;3.72;;;3.42;;
36573;SDS011;22578;42.668;23.232;2022-11-14T07:51:41;4.60;;;4.10;;
36573;SDS011;22578;42.668;23.232;2022-11-14T07:55:01;3.05;;;2.85;;
36573;SDS011;22578;42.668;23.232;2022-11-14T07:58:22;5.82;;;5.32;;
36573;SDS011;22578;42.668;23.232;2022-11-14T08:01:42;5.72;;;4.03;;
36573;SDS011;22578;42.668;23.232;2022-11-14T08:05:03;5.43;;;4.93;;
36573;SDS011;22578;42.668;23.232;2022-11-14T08:08:24;4.72;;;3.85;;
36573;SDS011;22578;42.668;23.232;2022-11-14T08:11:44;5.15;;;4.75;;
36573;SDS011;22578;42.668;23.232;2022-11-14T08:15:08;4.85;;;4.55;;
36573;SDS011;22578;42.668;23.232;2022-11-14T08:18:29;3.63;;;3.33;;
36573;SDS011;22578;42.668;23.232;2022-11-14T08:21:49;4.47;;;3.35;;
36573;SDS011;22578;42.668;23.232;2022-11-14T08:25:10;4.78;;;4.38;;
36573;SDS011;22578;42.668;23.232;2022-11-14T08:28:30;4.57;;;4.22;;
36573;SDS011;22578;42.668;23.232;2022-11-14T08:31:50;5.22;;;4.82;;
36573;SDS011;22578;42.668;23.232;2022-11-14T08:35:11;5.15;;;4.75;;
36573;SDS011;22578;42.668;23.232;2022-11-14T08:38:32;4.32;;;3.97;;
36573;SDS011;22578;42.668;23.232;2022-11-14T08:41:53;4.15;;;3.85;;
36573;SDS011;22578;42.668;23.232;2022-11-14T08:45:13;3.53;;;3.33;;
36573;SDS011;22578;42.668;23.232;2022-11-14T08:48:34;3.63;;;3.40;;
36573;SDS011;22578;42.668;23.232;2022-11-14T08:51:54;6.15;;;5.57;;
36573;SDS011;22578;42.668;23.232;2022-11-14T08:55:15;6.63;;;6.07;;
36573;SDS011;22578;42.668;23.232;2022-11-14T08:58:35;6.07;;;5.57;;
36573;SDS011;22578;42.668;23.232;2022-11-14T09:01:56;5.63;;;5.15;;
36573;SDS011;22578;42.668;23.232;2022-11-14T09:05:16;6.47;;;5.40;;
36573;SDS011;22578;42.668;23.232;2022-11-14T09:08:36;5.20;;;4.80;;
36573;SDS011;22578;42.668;23.232;2022-11-14T09:11:57;7.07;;;5.82;;
36573;SDS011;22578;42.668;23.232;2022-11-14T09:15:17;5.80;;;5.18;;
36573;SDS011;22578;42.668;23.232;2022-11-14T09:18:38;6.28;;;4.70;;
36573;SDS011;22578;42.668;23.232;2022-11-14T09:21:58;5.05;;;4.70;;
36573;SDS011;22578;42.668;23.232;2022-11-14T09:25:19;4.40;;;4.07;;
36573;SDS011;22578;42.668;23.232;2022-11-14T09:28:40;5.63;;;5.07;;
36573;SDS011;22578;42.668;23.232;2022-11-14T09:32:01;5.60;;;5.07;;
36573;SDS011;22578;42.668;23.232;2022-11-14T09:35:21;6.18;;;5.65;;
36573;SDS011;22578;42.668;23.232;2022-11-14T09:38:42;7.90;;;7.18;;
36573;SDS011;22578;42.668;23.232;2022-11-14T09:45:54;4.25;;;3.92;;
36573;SDS011;22578;42.668;23.232;2022-11-14T09:53:15;5.63;;;4.55;;
36573;SDS011;22578;42.668;23.232;2022-11-14T09:56:39;4.63;;;4.22;;
36573;SDS011;22578;42.668;23.232;2022-11-14T09:59:59;5.72;;;5.22;;
36573;SDS011;22578;42.668;23.232;2022-11-14T10:11:19;5.25;;;4.85;;
36573;SDS011;22578;42.668;23.232;2022-11-14T10:26:13;5.85;;;5.35;;
36573;SDS011;22578;42.668;23.232;2022-11-14T10:29:27;6.57;;;6.03;;
36573;SDS011;22578;42.668;23.232;2022-11-14T10:36:26;5.78;;;5.25;;
36573;SDS011;22578;42.668;23.232;2022-11-14T10:39:54;6.13;;;5.38;;
36573;SDS011;22578;42.668;23.232;2022-11-14T10:43:19;4.68;;;4.13;;
36573;SDS011;22578;42.668;23.232;2022-11-14T10:47:17;4.35;;;3.95;;
36573;SDS011;22578;42.668;23.232;2022-11-14T10:50:42;6.57;;;5.82;;
36573;SDS011;22578;42.668;23.232;2022-11-14T10:57:29;6.37;;;5.67;;
36573;SDS011;22578;42.668;23.232;2022-11-14T11:00:52;5.68;;;5.07;;
36573;SDS011;22578;42.668;23.232;2022-11-14T11:04:18;5.43;;;4.93;;
36573;SDS011;22578;42.668;23.232;2022-11-14T11:07:52;7.20;;;5.63;;
36573;SDS011;22578;42.668;23.232;2022-11-14T11:11:31;4.93;;;3.67;;
36573;SDS011;22578;42.668;23.232;2022-11-14T11:18:41;8.40;;;6.43;;
36573;SDS011;22578;42.668;23.232;2022-11-14T11:22:01;6.68;;;6.03;;
36573;SDS011;22578;42.668;23.232;2022-11-14T11:25:24;11.32;;;6.10;;
36573;SDS011;22578;42.668;23.232;2022-11-14T11:28:59;5.13;;;4.63;;
36573;SDS011;22578;42.668;23.232;2022-11-14T11:32:24;6.05;;;5.50;;
36573;SDS011;22578;42.668;23.232;2022-11-14T11:35:45;6.30;;;5.63;;
36573;SDS011;22578;42.668;23.232;2022-11-14T11:39:10;5.72;;;5.13;;
36573;SDS011;22578;42.668;23.232;2022-11-14T11:46:15;6.25;;;5.43;;
36573;SDS011;22578;42.668;23.232;2022-11-14T11:49:39;8.85;;;6.80;;
36573;SDS011;22578;42.668;23.232;2022-11-14T11:53:23;5.70;;;5.03;;
36573;SDS011;22578;42.668;23.232;2022-11-14T11:56:47;5.03;;;4.55;;
36573;SDS011;22578;42.668;23.232;2022-11-14T12:03:34;6.82;;;4.95;;
36573;SDS011;22578;42.668;23.232;2022-11-14T12:07:03;7.78;;;6.93;;
36573;SDS011;22578;42.668;23.232;2022-11-14T12:10:31;7.38;;;6.60;;
36573;SDS011;22578;42.668;23.232;2022-11-14T12:32:14;8.05;;;5.75;;
36573;SDS011;22578;42.668;23.232;2022-11-14T12:35:58;6.03;;;5.43;;
36573;SDS011;22578;42.668;23.232;2022-11-14T12:39:25;5.85;;;4.95;;
36573;SDS011;22578;42.668;23.232;2022-11-14T12:42:47;4.73;;;4.33;;
36573;SDS011;22578;42.668;23.232;2022-11-14T12:46:08;4.93;;;4.53;;
36573;SDS011;22578;42.668;23.232;2022-11-14T12:56:57;4.05;;;3.75;;
36573;SDS011;22578;42.668;23.232;2022-11-14T13:00:19;5.65;;;4.57;;
36573;SDS011;22578;42.668;23.232;2022-11-14T13:15:24;12.93;;;4.75;;
36573;SDS011;22578;42.668;23.232;2022-11-14T13:19:12;4.40;;;3.92;;
36573;SDS011;22578;42.668;23.232;2022-11-14T13:22:59;5.10;;;4.65;;
36573;SDS011;22578;42.668;23.232;2022-11-14T13:33:00;5.27;;;4.80;;
36573;SDS011;22578;42.668;23.232;2022-11-14T13:43:29;11.45;;;7.15;;
36573;SDS011;22578;42.668;23.232;2022-11-14T13:50:54;4.70;;;4.25;;
36573;SDS011;22578;42.668;23.232;2022-11-14T13:54:17;6.32;;;4.30;;
36573;SDS011;22578;42.668;23.232;2022-11-14T13:57:40;5.55;;;4.75;;
36573;SDS011;22578;42.668;23.232;2022-11-14T14:04:51;4.47;;;4.05;;
36573;SDS011;22578;42.668;23.232;2022-11-14T14:09:02;19.00;;;6.45;;
36573;SDS011;22578;42.668;23.232;2022-11-14T14:12:23;4.68;;;4.30;;
36573;SDS011;22578;42.668;23.232;2022-11-14T14:16:05;4.38;;;3.97;;
36573;SDS011;22578;42.668;23.232;2022-11-14T14:23:19;5.53;;;4.90;;
36573;SDS011;22578;42.668;23.232;2022-11-14T14:26:55;7.20;;;6.00;;
36573;SDS011;22578;42.668;23.232;2022-11-14T14:30:19;2.97;;;2.70;;
36573;SDS011;22578;42.668;23.232;2022-11-14T14:33:41;5.70;;;5.07;;
36573;SDS011;22578;42.668;23.232;2022-11-14T14:37:02;6.57;;;4.57;;
36573;SDS011;22578;42.668;23.232;2022-11-14T14:43:53;5.63;;;4.82;;
36573;SDS011;22578;42.668;23.232;2022-11-14T14:47:15;5.35;;;4.95;;
36573;SDS011;22578;42.668;23.232;2022-11-14T14:51:11;3.60;;;3.10;;
36573;SDS011;22578;42.668;23.232;2022-11-14T14:54:33;4.97;;;4.55;;
36573;SDS011;22578;42.668;23.232;2022-11-14T14:57:54;5.13;;;4.68;;
36573;SDS011;22578;42.668;23.232;2022-11-14T15:01:31;3.42;;;3.22;;
36573;SDS011;22578;42.668;23.232;2022-11-14T15:04:53;6.85;;;6.15;;
36573;SDS011;22578;42.668;23.232;2022-11-14T15:08:15;4.20;;;3.88;;
36573;SDS011;22578;42.668;23.232;2022-11-14T15:11:38;4.03;;;3.70;;
36573;SDS011;22578;42.668;23.232;2022-11-14T15:15:00;4.13;;;3.42;;
36573;SDS011;22578;42.668;23.232;2022-11-14T15:18:25;6.15;;;5.63;;
36573;SDS011;22578;42.668;23.232;2022-11-14T15:25:44;5.45;;;5.05;;
36573;SDS011;22578;42.668;23.232;2022-11-14T15:29:06;4.65;;;4.30;;
36573;SDS011;22578;42.668;23.232;2022-11-14T15:32:46;5.75;;;5.28;;
36573;SDS011;22578;42.668;23.232;2022-11-14T15:36:14;4.90;;;4.43;;
36573;SDS011;22578;42.668;23.232;2022-11-14T15:39:39;5.43;;;3.72;;
36573;SDS011;22578;42.668;23.232;2022-11-14T15:42:59;5.28;;;4.78;;
36573;SDS011;22578;42.668;23.232;2022-11-14T15:53:45;3.88;;;3.50;;
36573;SDS011;22578;42.668;23.232;2022-11-14T15:57:13;3.90;;;3.58;;
36573;SDS011;22578;42.668;23.232;2022-11-14T16:00:37;5.28;;;4.85;;
36573;SDS011;22578;42.668;23.232;2022-11-14T16:04:01;5.28;;;4.88;;
36573;SDS011;22578;42.668;23.232;2022-11-14T16:07:22;4.35;;;4.05;;
36573;SDS011;22578;42.668;23.232;2022-11-14T16:10:42;3.65;;;3.40;;
36573;SDS011;22578;42.668;23.232;2022-11-14T16:14:02;5.10;;;4.70;;
36573;SDS011;22578;42.668;23.232;2022-11-14T16:17:23;4.65;;;4.30;;
36573;SDS011;22578;42.668;23.232;2022-11-14T16:20:43;5.85;;;5.35;;
36573;SDS011;22578;42.668;23.232;2022-11-14T16:24:04;8.05;;;6.70;;
36573;SDS011;22578;42.668;23.232;2022-11-14T16:27:25;15.73;;;3.42;;
36573;SDS011;22578;42.668;23.232;2022-11-14T16:30:46;3.70;;;3.40;;
36573;SDS011;22578;42.668;23.232;2022-11-14T16:34:06;3.05;;;2.85;;
36573;SDS011;22578;42.668;23.232;2022-11-14T16:37:33;2.85;;;2.65;;
36573;SDS011;22578;42.668;23.232;2022-11-14T16:40:53;4.18;;;3.78;;
36573;SDS011;22578;42.668;23.232;2022-11-14T16:44:14;3.40;;;3.17;;
36573;SDS011;22578;42.668;23.232;2022-11-14T16:47:38;3.28;;;3.05;;
36573;SDS011;22578;42.668;23.232;2022-11-14T16:50:59;3.88;;;3.58;;
36573;SDS011;22578;42.668;23.232;2022-11-14T16:54:21;3.83;;;3.53;;
36573;SDS011;22578;42.668;23.232;2022-11-14T16:57:41;2.65;;;2.50;;
36573;SDS011;22578;42.668;23.232;2022-11-14T17:01:01;5.35;;;4.95;;
36573;SDS011;22578;42.668;23.232;2022-11-14T17:04:22;2.08;;;1.98;;
36573;SDS011;22578;42.668;23.232;2022-11-14T17:07:42;5.18;;;4.50;;
36573;SDS011;22578;42.668;23.232;2022-11-14T17:11:06;3.03;;;2.83;;
36573;SDS011;22578;42.668;23.232;2022-11-14T17:14:28;2.92;;;2.72;;
36573;SDS011;22578;42.668;23.232;2022-11-14T17:17:49;3.47;;;3.28;;
36573;SDS011;22578;42.668;23.232;2022-11-14T17:21:10;3.58;;;2.17;;
36573;SDS011;22578;42.668;23.232;2022-11-14T17:24:31;3.55;;;3.35;;
36573;SDS011;22578;42.668;23.232;2022-11-14T17:27:51;5.22;;;3.42;;
36573;SDS011;22578;42.668;23.232;2022-11-14T17:31:12;3.13;;;2.92;;
36573;SDS011;22578;42.668;23.232;2022-11-14T17:34:32;2.97;;;2.78;;
36573;SDS011;22578;42.668;23.232;2022-11-14T17:37:53;5.63;;;5.18;;
36573;SDS011;22578;42.668;23.232;2022-11-14T17:41:13;3.90;;;3.65;;
36573;SDS011;22578;42.668;23.232;2022-11-14T17:44:33;2.92;;;2.72;;
36573;SDS011;22578;42.668;23.232;2022-11-14T17:47:54;4.72;;;4.40;;
36573;SDS011;22578;42.668;23.232;2022-11-14T17:51:15;2.90;;;2.70;;
36573;SDS011;22578;42.668;23.232;2022-11-14T17:54:35;3.13;;;2.92;;
36573;SDS011;22578;42.668;23.232;2022-11-14T17:57:56;2.28;;;2.17;;
36573;SDS011;22578;42.668;23.232;2022-11-14T18:01:18;3.25;;;3.00;;
36573;SDS011;22578;42.668;23.232;2022-11-14T18:04:40;3.13;;;2.92;;
36573;SDS011;22578;42.668;23.232;2022-11-14T18:08:00;4.20;;;3.90;;
36573;SDS011;22578;42.668;23.232;2022-11-14T18:11:21;4.28;;;3.95;;
36573;SDS011;22578;42.668;23.232;2022-11-14T18:14:41;6.93;;;4.85;;
36573;SDS011;22578;42.668;23.232;2022-11-14T18:18:02;2.72;;;2.60;;
36573;SDS011;22578;42.668;23.232;2022-11-14T18:21:22;4.30;;;3.85;;
36573;SDS011;22578;42.668;23.232;2022-11-14T18:24:43;4.18;;;3.85;;
36573;SDS011;22578;42.668;23.232;2022-11-14T18:28:06;4.35;;;4.05;;
36573;SDS011;22578;42.668;23.232;2022-11-14T18:31:26;3.90;;;3.60;;
36573;SDS011;22578;42.668;23.232;2022-11-14T18:34:49;3.45;;;3.25;;
36573;SDS011;22578;42.668;23.232;2022-11-14T18:38:10;2.08;;;1.95;;
36573;SDS011;22578;42.668;23.232;2022-11-14T18:41:30;2.97;;;2.78;;
36573;SDS011;22578;42.668;23.232;2022-11-14T18:44:51;3.63;;;3.33;;
36573;SDS011;22578;42.668;23.232;2022-11-14T18:48:11;3.20;;;3.00;;
36573;SDS011;22578;42.668;23.232;2022-11-14T18:51:31;6.47;;;4.43;;
36573;SDS011;22578;42.668;23.232;2022-11-14T18:55:00;3.75;;;3.47;;
36573;SDS011;22578;42.668;23.232;2022-11-14T18:58:23;2.10;;;1.90;;
36573;SDS011;22578;42.668;23.232;2022-11-14T19:01:43;1.80;;;1.70;;
36573;SDS011;22578;42.668;23.232;2022-11-14T19:05:04;5.65;;;3.65;;
36573;SDS011;22578;42.668;23.232;2022-11-14T19:08:24;2.67;;;2.47;;
36573;SDS011;22578;42.668;23.232;2022-11-14T19:11:45;3.40;;;3.10;;
36573;SDS011;22578;42.668;23.232;2022-11-14T19:15:23;5.15;;;2.67;;
36573;SDS011;22578;42.668;23.232;2022-11-14T19:18:44;1.98;;;1.88;;
36573;SDS011;22578;42.668;23.232;2022-11-14T19:22:04;1.90;;;1.80;;
36573;SDS011;22578;42.668;23.232;2022-11-14T19:25:25;4.32;;;3.95;;
36573;SDS011;22578;42.668;23.232;2022-11-14T19:28:45;2.92;;;2.72;;
36573;SDS011;22578;42.668;23.232;2022-11-14T19:32:06;2.85;;;2.65;;
36573;SDS011;22578;42.668;23.232;2022-11-14T19:35:27;2.88;;;2.67;;
36573;SDS011;22578;42.668;23.232;2022-11-14T19:38:54;2.00;;;1.90;;
36573;SDS011;22578;42.668;23.232;2022-11-14T19:45:35;2.97;;;2.80;;
36573;SDS011;22578;42.668;23.232;2022-11-14T19:48:58;3.08;;;2.88;;
36573;SDS011;22578;42.668;23.232;2022-11-14T19:52:19;1.98;;;1.88;;
36573;SDS011;22578;42.668;23.232;2022-11-14T19:55:40;2.67;;;2.50;;
36573;SDS011;22578;42.668;23.232;2022-11-14T19:59:00;2.47;;;2.30;;
36573;SDS011;22578;42.668;23.232;2022-11-14T20:02:21;4.65;;;4.00;;
36573;SDS011;22578;42.668;23.232;2022-11-14T20:05:42;2.13;;;2.03;;
36573;SDS011;22578;42.668;23.232;2022-11-14T20:09:06;3.03;;;2.80;;
36573;SDS011;22578;42.668;23.232;2022-11-14T20:12:27;3.45;;;2.63;;
36573;SDS011;22578;42.668;23.232;2022-11-14T20:15:48;1.40;;;1.40;;
36573;SDS011;22578;42.668;23.232;2022-11-14T20:19:08;3.03;;;2.83;;
36573;SDS011;22578;42.668;23.232;2022-11-14T20:22:29;2.05;;;1.95;;
36573;SDS011;22578;42.668;23.232;2022-11-14T20:25:50;3.28;;;3.08;;
36573;SDS011;22578;42.668;23.232;2022-11-14T20:29:11;2.13;;;2.03;;
36573;SDS011;22578;42.668;23.232;2022-11-14T20:32:32;3.55;;;2.30;;
36573;SDS011;22578;42.668;23.232;2022-11-14T20:35:52;2.63;;;2.53;;
36573;SDS011;22578;42.668;23.232;2022-11-14T20:39:12;3.17;;;2.97;;
36573;SDS011;22578;42.668;23.232;2022-11-14T20:42:33;2.83;;;2.63;;
36573;SDS011;22578;42.668;23.232;2022-11-14T20:46:04;4.00;;;3.70;;
36573;SDS011;22578;42.668;23.232;2022-11-14T20:49:25;3.25;;;3.05;;
36573;SDS011;22578;42.668;23.232;2022-11-14T20:52:46;3.05;;;2.85;;
36573;SDS011;22578;42.668;23.232;2022-11-14T20:56:07;3.13;;;2.88;;
36573;SDS011;22578;42.668;23.232;2022-11-14T20:59:28;2.83;;;2.63;;
36573;SDS011;22578;42.668;23.232;2022-11-14T21:02:48;5.32;;;4.80;;
36573;SDS011;22578;42.668;23.232;2022-11-14T21:06:10;3.55;;;3.35;;
36573;SDS011;22578;42.668;23.232;2022-11-14T21:09:31;3.47;;;3.20;;
36573;SDS011;22578;42.668;23.232;2022-11-14T21:12:51;3.28;;;3.08;;
36573;SDS011;22578;42.668;23.232;2022-11-14T21:16:33;3.15;;;2.90;;
36573;SDS011;22578;42.668;23.232;2022-11-14T21:19:54;2.38;;;2.28;;
36573;SDS011;22578;42.668;23.232;2022-11-14T21:23:14;4.00;;;3.47;;
36573;SDS011;22578;42.668;23.232;2022-11-14T21:26:36;2.15;;;2.05;;
36573;SDS011;22578;42.668;23.232;2022-11-14T21:29:57;1.90;;;1.80;;
36573;SDS011;22578;42.668;23.232;2022-11-14T21:33:17;2.72;;;2.55;;
36573;SDS011;22578;42.668;23.232;2022-11-14T21:36:38;2.42;;;2.30;;
36573;SDS011;22578;42.668;23.232;2022-11-14T21:39:58;3.20;;;2.92;;
36573;SDS011;22578;42.668;23.232;2022-11-14T21:43:19;2.42;;;2.28;;
36573;SDS011;22578;42.668;23.232;2022-11-14T21:46:40;2.85;;;2.65;;
36573;SDS011;22578;42.668;23.232;2022-11-14T21:50:00;4.30;;;3.95;;
36573;SDS011;22578;42.668;23.232;2022-11-14T21:53:21;2.42;;;2.33;;
36573;SDS011;22578;42.668;23.232;2022-11-14T21:56:41;4.15;;;3.85;;
36573;SDS011;22578;42.668;23.232;2022-11-14T22:00:01;4.03;;;3.72;;
36573;SDS011;22578;42.668;23.232;2022-11-14T22:03:23;2.80;;;2.60;;
36573;SDS011;22578;42.668;23.232;2022-11-14T22:07:03;1.98;;;1.88;;